createdAt,value
2022-09-26T00:02:20.332Z,13.77
2022-09-26T00:07:25.363Z,14.50
2022-09-26T00:12:28.943Z,12.40
2022-09-26T00:17:32.414Z,14.18
2022-09-26T00:22:37.297Z,13.75
2022-09-26T00:27:40.583Z,13.32
2022-09-26T00:32:43.871Z,15.05
2022-09-26T00:37:48.616Z,14.43
2022-09-26T00:42:51.877Z,15.15
2022-09-26T00:48:01.183Z,13.52
2022-09-26T00:53:11.034Z,13.40
2022-09-26T00:58:17.918Z,14.00
2022-09-26T01:03:22.005Z,14.65
2022-09-26T01:08:33.936Z,14.52
2022-09-26T01:13:39.135Z,14.38
2022-09-26T01:18:43.182Z,13.13
2022-09-26T01:24:27.534Z,14.02
2022-09-26T01:34:59.110Z,13.40
2022-09-26T01:40:11.081Z,14.25
2022-09-26T01:45:19.152Z,13.43
2022-09-26T01:50:28.858Z,13.98
2022-09-26T01:55:38.073Z,13.85
2022-09-26T02:00:44.094Z,12.63
2022-09-26T02:05:53.732Z,12.98
2022-09-26T02:11:02.260Z,12.65
2022-09-26T02:16:12.236Z,12.88
2022-09-26T02:21:20.337Z,12.45
2022-09-26T02:26:25.075Z,13.55
2022-09-26T02:31:33.078Z,14.77
2022-09-26T02:36:38.307Z,13.20
2022-09-26T02:41:49.406Z,13.73
2022-09-26T02:47:15.077Z,13.23
2022-09-26T02:52:30.576Z,13.82
2022-09-26T02:57:41.634Z,14.73
2022-09-26T03:02:51.611Z,14.38
2022-09-26T03:08:02.120Z,13.65
2022-09-26T03:13:09.368Z,13.35
2022-09-26T03:18:17.900Z,14.45
2022-09-26T03:23:24.329Z,13.95
2022-09-26T03:28:28.225Z,13.98
2022-09-26T03:33:31.663Z,12.68
2022-09-26T03:38:36.692Z,13.93
2022-09-26T03:43:43.785Z,12.48
2022-09-26T03:48:47.099Z,13.18
2022-09-26T03:53:51.714Z,13.15
2022-09-26T03:58:55.153Z,13.35
2022-09-26T04:03:58.706Z,13.07
2022-09-26T04:09:04.367Z,12.20
2022-09-26T04:14:07.683Z,10.95
2022-09-26T04:19:12.699Z,11.63
2022-09-26T04:24:18.044Z,11.48
2022-09-26T04:29:21.481Z,11.80
2022-09-26T04:34:27.220Z,11.15
2022-09-26T04:39:33.181Z,12.52
2022-09-26T04:44:36.461Z,11.52
2022-09-26T04:49:39.781Z,11.13
2022-09-26T04:54:44.757Z,11.38
2022-09-26T04:59:48.114Z,13.23
2022-09-26T05:04:51.380Z,12.63
2022-09-26T05:09:56.900Z,11.75
2022-09-26T05:15:01.817Z,11.95
2022-09-26T05:20:08.767Z,11.15
2022-09-26T05:25:31.706Z,11.70
2022-09-26T05:30:36.233Z,12.93
2022-09-26T05:35:39.537Z,12.52
2022-09-26T05:40:59.337Z,12.50
2022-09-26T05:46:05.094Z,12.15
2022-09-26T05:51:12.582Z,12.52
2022-09-26T05:56:19.729Z,14.23
2022-09-26T06:01:24.411Z,18.48
2022-09-26T06:06:28.071Z,12.25
2022-09-26T06:11:32.745Z,11.82
2022-09-26T06:16:36.420Z,12.20
2022-09-26T06:21:40.316Z,12.68
2022-09-26T06:26:44.984Z,14.27
2022-09-26T06:31:49.428Z,12.30
2022-09-26T06:36:52.934Z,13.43
2022-09-26T06:41:57.596Z,12.95
2022-09-26T06:47:01.705Z,15.18
2022-09-26T06:52:05.606Z,12.85
2022-09-26T06:57:15.358Z,11.38
2022-09-26T07:02:19.350Z,11.85
2022-09-26T07:07:22.749Z,12.05
2022-09-26T07:12:28.419Z,12.02
2022-09-26T07:17:31.709Z,14.30
2022-09-26T07:22:35.391Z,14.25
2022-09-26T07:27:40.981Z,14.73
2022-09-26T07:32:46.190Z,16.73
2022-09-26T07:37:52.842Z,17.65
2022-09-26T07:43:18.976Z,17.83
2022-09-26T07:48:40.902Z,17.80
2022-09-26T07:53:44.269Z,18.15
2022-09-26T07:58:48.951Z,15.88
2022-09-26T08:03:58.251Z,16.60
2022-09-26T08:09:01.847Z,17.05
2022-09-26T08:14:06.731Z,15.18
2022-09-26T08:19:17.238Z,16.60
2022-09-26T08:24:20.990Z,15.50
2022-09-26T08:29:25.865Z,16.40
2022-09-26T08:34:29.167Z,18.50
2022-09-26T08:39:33.582Z,15.45
2022-09-26T08:45:24.519Z,18.70
2022-09-26T08:50:34.881Z,14.90
2022-09-26T08:55:44.898Z,18.85
2022-09-26T09:00:57.421Z,17.90
2022-09-26T09:06:05.283Z,16.63
2022-09-26T09:11:19.085Z,16.60
2022-09-26T09:16:45.835Z,15.48
2022-09-26T09:21:59.576Z,17.10
2022-09-26T09:32:51.125Z,17.52
2022-09-26T09:37:55.346Z,16.73
2022-09-26T09:43:03.955Z,16.75
2022-09-26T09:48:12.003Z,17.05
2022-09-26T09:53:34.747Z,16.85
2022-09-26T09:58:54.621Z,17.02
2022-09-26T10:04:06.091Z,16.88
2022-09-26T10:09:35.406Z,18.15
2022-09-26T10:14:48.548Z,17.48
2022-09-26T10:19:53.333Z,16.40
2022-09-26T10:25:02.597Z,17.38
2022-09-26T10:30:21.942Z,16.20
2022-09-26T10:35:29.754Z,17.13
2022-09-26T10:40:48.954Z,17.30
2022-09-26T10:45:55.840Z,19.08
2022-09-26T10:51:01.866Z,17.98
2022-09-26T10:56:11.468Z,17.85
2022-09-26T11:01:22.922Z,19.70
2022-09-26T11:06:32.910Z,17.73
2022-09-26T11:11:39.442Z,14.73
2022-09-26T11:16:53.964Z,13.50
2022-09-26T11:22:07.978Z,14.18
2022-09-26T11:27:20.832Z,13.70
2022-09-26T11:32:30.053Z,13.15
2022-09-26T11:37:50.950Z,13.00
2022-09-26T11:43:19.984Z,12.63
2022-09-26T11:48:38.438Z,15.10
2022-09-26T11:54:13.127Z,14.50
2022-09-26T11:59:29.729Z,16.23
2022-09-26T12:05:00.046Z,14.25
2022-09-26T12:10:17.571Z,17.15
2022-09-26T12:15:27.957Z,16.98
2022-09-26T12:20:38.206Z,16.23
2022-09-26T12:26:02.326Z,13.93
2022-09-26T12:31:17.243Z,14.25
2022-09-26T12:36:40.140Z,12.48
2022-09-26T12:42:03.705Z,10.75
2022-09-26T12:47:32.229Z,11.18
2022-09-26T12:53:01.772Z,11.43
2022-09-26T12:58:23.513Z,10.88
2022-09-26T13:03:57.556Z,11.45
2022-09-26T13:09:11.330Z,10.98
2022-09-26T13:14:34.983Z,10.45
2022-09-26T13:19:44.018Z,11.38
2022-09-26T13:24:52.385Z,10.57
2022-09-26T13:30:03.249Z,8.57
2022-09-26T13:35:16.877Z,9.10
2022-09-26T13:40:34.931Z,7.20
2022-09-26T13:45:51.542Z,7.85
2022-09-26T13:51:00.851Z,4.88
2022-09-26T13:56:30.801Z,4.65
2022-09-26T14:01:35.731Z,4.82
2022-09-26T14:06:39.168Z,4.20
2022-09-26T14:11:49.221Z,5.38
2022-09-26T14:16:56.726Z,5.03
2022-09-26T14:22:02.546Z,4.38
2022-09-26T14:27:43.580Z,3.95
2022-09-26T14:32:48.288Z,3.85
2022-09-26T14:37:52.834Z,4.35
2022-09-26T14:43:00.492Z,4.30
2022-09-26T14:48:16.443Z,4.18
2022-09-26T14:53:25.176Z,3.53
2022-09-26T14:58:34.588Z,3.38
2022-09-26T15:03:39.694Z,2.70
2022-09-26T15:08:43.085Z,3.53
2022-09-26T15:13:47.647Z,3.85
2022-09-26T15:18:56.591Z,3.35
2022-09-26T15:24:00.357Z,3.15
2022-09-26T15:29:06.452Z,2.70
2022-09-26T15:34:17.201Z,2.35
2022-09-26T15:39:42.099Z,2.28
2022-09-26T15:44:49.633Z,2.88
2022-09-26T15:50:04.069Z,2.92
2022-09-26T15:55:08.714Z,2.30
2022-09-26T16:00:15.226Z,3.10
2022-09-26T16:05:22.423Z,2.42
2022-09-26T16:10:29.959Z,2.63
2022-09-26T16:15:33.462Z,2.60
2022-09-26T16:20:38.524Z,3.10
2022-09-26T16:25:58.493Z,2.72
2022-09-26T16:31:15.934Z,2.78
2022-09-26T16:36:23.507Z,2.50
2022-09-26T16:46:59.059Z,3.25
2022-09-26T16:52:28.526Z,3.53
2022-09-26T16:57:34.285Z,4.88
2022-09-26T17:02:39.142Z,9.18
2022-09-26T17:07:43.872Z,8.52
2022-09-26T17:12:50.469Z,8.35
2022-09-26T17:17:54.271Z,10.27
2022-09-26T17:23:08.024Z,8.93
2022-09-26T17:28:25.881Z,10.10
2022-09-26T17:33:30.633Z,8.60
2022-09-26T17:38:38.781Z,8.18
2022-09-26T17:43:42.763Z,11.57
2022-09-26T17:48:46.487Z,11.63
2022-09-26T17:53:52.566Z,13.40
2022-09-26T17:58:56.993Z,20.02
2022-09-26T18:04:06.333Z,18.65
2022-09-26T18:09:16.584Z,15.18
2022-09-26T18:14:20.852Z,14.15
2022-09-26T18:19:24.192Z,14.02
2022-09-26T18:24:30.868Z,13.00
2022-09-26T18:29:37.788Z,12.25
2022-09-26T18:34:42.108Z,12.93
2022-09-26T18:39:50.815Z,14.57
2022-09-26T18:45:03.609Z,19.35
2022-09-26T18:50:08.460Z,20.95
2022-09-26T18:55:37.835Z,17.70
2022-09-26T19:00:41.450Z,18.20
2022-09-26T19:05:44.961Z,16.58
2022-09-26T19:10:49.627Z,17.33
2022-09-26T19:15:53.657Z,15.23
2022-09-26T19:20:57.532Z,12.68
2022-09-26T19:26:02.828Z,12.95
2022-09-26T19:31:06.407Z,12.65
2022-09-26T19:36:11.255Z,13.20
2022-09-26T19:41:16.014Z,15.25
2022-09-26T19:46:26.094Z,14.95
2022-09-26T19:51:29.785Z,14.27
2022-09-26T19:56:35.393Z,15.23
2022-09-26T20:01:39.917Z,15.48
2022-09-26T20:06:43.749Z,16.10
2022-09-26T20:11:48.992Z,17.77
2022-09-26T20:16:57.497Z,18.20
2022-09-26T20:22:03.337Z,17.50
2022-09-26T20:27:14.201Z,17.15
2022-09-26T20:32:17.604Z,14.35
2022-09-26T20:37:23.729Z,14.18
2022-09-26T20:42:35.043Z,14.57
2022-09-26T20:47:40.429Z,15.20
2022-09-26T20:52:44.332Z,14.50
2022-09-26T20:57:50.822Z,14.27
2022-09-26T21:02:56.330Z,13.18
2022-09-26T21:08:01.195Z,13.00
2022-09-26T21:13:05.978Z,13.57
2022-09-26T21:18:23.420Z,13.45
2022-09-26T21:23:26.830Z,13.15
2022-09-26T21:28:31.533Z,13.43
2022-09-26T21:33:34.966Z,13.98
2022-09-26T21:38:38.404Z,13.68
2022-09-26T21:43:46.420Z,13.82
2022-09-26T21:48:50.117Z,14.35
2022-09-26T21:53:58.182Z,14.32
2022-09-26T21:59:05.174Z,13.95
2022-09-26T22:04:08.831Z,15.75
2022-09-26T22:09:12.081Z,14.50
2022-09-26T22:14:16.712Z,15.15
2022-09-26T22:19:20.027Z,15.38
2022-09-26T22:24:23.346Z,14.02
2022-09-26T22:29:28.354Z,14.93
2022-09-26T22:34:32.826Z,14.80
2022-09-26T22:39:36.092Z,13.68
2022-09-26T22:44:40.786Z,14.18
2022-09-26T22:49:44.148Z,14.93
2022-09-26T22:54:48.408Z,14.75
2022-09-26T22:59:53.092Z,15.57
2022-09-26T23:04:56.358Z,15.70
2022-09-26T23:10:00.274Z,15.15
2022-09-26T23:15:05.211Z,16.15
2022-09-26T23:20:09.490Z,15.63
2022-09-26T23:25:13.585Z,15.80
2022-09-26T23:30:18.243Z,16.08
2022-09-26T23:35:21.493Z,15.23
2022-09-26T23:40:24.855Z,16.52
2022-09-26T23:45:31.035Z,16.67
2022-09-26T23:50:34.376Z,16.17
2022-09-26T23:55:37.981Z,16.23
